createdAt,value
2018-10-11T00:01:47.388Z,14.90
2018-10-11T00:03:51.587Z,14.80
2018-10-11T00:05:55.929Z,14.70
2018-10-11T00:08:00.136Z,14.70
2018-10-11T00:10:04.377Z,14.70
2018-10-11T00:12:08.724Z,14.60
2018-10-11T00:14:12.942Z,14.70
2018-10-11T00:16:17.772Z,14.70
2018-10-11T00:18:22.006Z,14.70
2018-10-11T00:20:26.208Z,14.60
2018-10-11T00:22:30.500Z,14.70
2018-10-11T00:24:34.674Z,14.60
2018-10-11T00:26:39.203Z,14.70
2018-10-11T00:28:43.415Z,14.60
2018-10-11T00:30:47.607Z,14.60
2018-10-11T00:32:51.835Z,14.60
2018-10-11T00:34:56.076Z,14.60
2018-10-11T00:37:00.310Z,14.60
2018-10-11T00:39:05.711Z,14.60
2018-10-11T00:41:09.937Z,14.60
2018-10-11T00:43:14.127Z,14.60
2018-10-11T00:45:18.292Z,14.50
2018-10-11T00:47:22.555Z,14.50
2018-10-11T00:49:26.845Z,14.50
2018-10-11T00:51:31.091Z,14.50
2018-10-11T00:53:35.292Z,14.50
2018-10-11T00:55:39.511Z,14.50
2018-10-11T00:57:43.816Z,14.50
2018-10-11T00:59:47.991Z,14.50
2018-10-11T01:01:52.189Z,14.50
2018-10-11T01:03:56.378Z,14.30
2018-10-11T01:06:00.596Z,14.40
2018-10-11T01:08:04.887Z,14.20
2018-10-11T01:10:09.147Z,14.30
2018-10-11T01:12:13.422Z,14.30
2018-10-11T01:14:17.667Z,14.20
2018-10-11T01:16:21.851Z,14.20
2018-10-11T01:18:26.129Z,14.20
2018-10-11T01:20:30.335Z,14.20
2018-10-11T01:22:34.534Z,14.20
2018-10-11T01:24:38.828Z,14.20
2018-10-11T01:26:43.403Z,14.30
2018-10-11T01:28:47.634Z,14.10
2018-10-11T01:30:56.884Z,14.00
2018-10-11T01:33:01.125Z,14.00
2018-10-11T01:35:05.438Z,14.00
2018-10-11T01:37:09.773Z,14.00
2018-10-11T01:39:14.071Z,13.90
2018-10-11T01:41:18.318Z,13.90
2018-10-11T01:43:22.690Z,14.00
2018-10-11T01:45:51.032Z,14.10
2018-10-11T01:47:56.444Z,14.10
2018-10-11T01:50:00.702Z,14.10
2018-10-11T01:52:04.968Z,14.00
2018-10-11T01:54:09.195Z,14.10
2018-10-11T01:56:13.355Z,14.00
2018-10-11T01:58:17.645Z,14.00
2018-10-11T02:00:21.960Z,14.10
2018-10-11T02:02:26.129Z,14.10
2018-10-11T02:04:30.320Z,13.90
2018-10-11T02:06:34.579Z,14.00
2018-10-11T02:08:38.737Z,14.10
2018-10-11T02:10:42.973Z,14.10
2018-10-11T02:12:47.151Z,14.10
2018-10-11T02:14:51.319Z,14.00
2018-10-11T02:16:55.710Z,13.90
2018-10-11T02:18:59.934Z,13.90
2018-10-11T02:21:04.226Z,13.90
2018-10-11T02:23:08.425Z,13.80
2018-10-11T02:25:13.067Z,13.80
2018-10-11T02:27:17.258Z,13.70
2018-10-11T02:29:21.500Z,13.80
2018-10-11T02:31:26.302Z,13.80
2018-10-11T02:33:30.587Z,13.70
2018-10-11T02:35:35.101Z,13.70
2018-10-11T02:37:39.964Z,13.80
2018-10-11T02:39:44.894Z,13.80
2018-10-11T02:41:49.772Z,13.70
2018-10-11T02:43:54.341Z,13.70
2018-10-11T02:45:59.427Z,13.60
2018-10-11T02:48:03.874Z,13.50
2018-10-11T02:50:08.778Z,13.50
2018-10-11T02:52:13.633Z,13.60
2018-10-11T02:54:18.581Z,13.60
2018-10-11T02:56:24.663Z,13.50
2018-10-11T02:58:40.143Z,13.50
2018-10-11T03:00:44.963Z,13.60
2018-10-11T03:02:50.213Z,13.60
2018-10-11T03:04:55.609Z,13.60
2018-10-11T03:07:01.508Z,13.50
2018-10-11T03:09:08.185Z,13.50
2018-10-11T03:11:12.712Z,13.60
2018-10-11T03:13:16.894Z,13.60
2018-10-11T03:15:21.069Z,13.60
2018-10-11T03:17:25.343Z,13.50
2018-10-11T03:19:29.514Z,13.40
2018-10-11T03:21:33.734Z,13.40
2018-10-11T03:23:37.937Z,13.50
2018-10-11T03:25:43.452Z,13.40
2018-10-11T03:27:47.686Z,13.40
2018-10-11T03:29:51.947Z,13.40
2018-10-11T03:31:56.175Z,13.40
2018-10-11T03:34:00.527Z,13.30
2018-10-11T03:36:04.770Z,13.40
2018-10-11T03:38:09.004Z,13.40
2018-10-11T03:40:13.214Z,13.30
2018-10-11T03:42:17.385Z,13.30
2018-10-11T03:44:21.579Z,13.30
2018-10-11T03:46:25.764Z,13.30
2018-10-11T03:48:29.972Z,13.30
2018-10-11T03:50:34.119Z,13.30
2018-10-11T03:52:38.387Z,13.30
2018-10-11T03:54:42.587Z,13.30
2018-10-11T03:56:46.806Z,13.30
2018-10-11T03:58:51.103Z,13.30
2018-10-11T04:00:55.371Z,13.20
2018-10-11T04:02:59.700Z,13.30
2018-10-11T04:05:03.997Z,13.20
2018-10-11T04:07:08.227Z,13.20
2018-10-11T04:09:12.509Z,13.30
2018-10-11T04:11:16.770Z,13.20
2018-10-11T04:13:21.032Z,13.10
2018-10-11T04:15:25.241Z,13.20
2018-10-11T04:17:29.564Z,13.20
2018-10-11T04:19:33.804Z,12.90
2018-10-11T04:21:37.994Z,13.10
2018-10-11T04:23:42.258Z,13.10
2018-10-11T04:25:46.413Z,13.10
2018-10-11T04:27:50.640Z,13.00
2018-10-11T04:29:54.919Z,13.10
2018-10-11T04:31:59.119Z,13.20
2018-10-11T04:34:03.410Z,13.10
2018-10-11T04:36:07.793Z,13.10
2018-10-11T04:38:12.152Z,13.00
2018-10-11T04:40:16.428Z,13.10
2018-10-11T04:42:20.674Z,13.10
2018-10-11T04:44:25.077Z,13.10
2018-10-11T04:46:29.431Z,13.00
2018-10-11T04:48:33.725Z,12.80
2018-10-11T04:50:38.079Z,12.90
2018-10-11T04:52:42.295Z,13.00
2018-10-11T04:54:46.539Z,13.00
2018-10-11T04:56:50.753Z,12.90
2018-10-11T04:58:55.068Z,12.80
2018-10-11T05:00:59.341Z,12.90
2018-10-11T05:03:03.585Z,12.90
2018-10-11T05:05:08.010Z,12.90
2018-10-11T05:07:12.573Z,12.90
2018-10-11T05:09:16.759Z,12.90
2018-10-11T05:11:21.028Z,12.70
2018-10-11T05:13:38.216Z,12.80
2018-10-11T05:15:43.830Z,12.70
2018-10-11T05:17:48.273Z,12.60
2018-10-11T05:19:52.534Z,12.80
2018-10-11T05:21:57.344Z,12.80
2018-10-11T05:24:01.759Z,12.70
2018-10-11T05:26:06.507Z,12.80
2018-10-11T05:28:11.292Z,12.80
2018-10-11T05:30:16.480Z,12.70
2018-10-11T05:32:21.010Z,12.80
2018-10-11T05:34:25.394Z,12.80
2018-10-11T05:36:29.524Z,12.80
2018-10-11T05:38:33.733Z,12.80
2018-10-11T05:40:38.085Z,12.70
2018-10-11T05:42:42.596Z,12.70
2018-10-11T05:44:46.882Z,12.70
2018-10-11T05:46:51.132Z,12.60
2018-10-11T05:48:55.877Z,12.50
2018-10-11T05:51:01.279Z,12.40
2018-10-11T05:53:05.558Z,12.30
2018-10-11T05:55:09.840Z,12.50
2018-10-11T05:57:14.185Z,12.50
2018-10-11T05:59:18.578Z,12.60
2018-10-11T06:01:23.136Z,12.60
2018-10-11T06:03:27.504Z,12.60
2018-10-11T06:05:32.201Z,12.70
2018-10-11T06:07:36.463Z,12.70
2018-10-11T06:09:41.159Z,12.70
2018-10-11T06:11:46.044Z,12.60
2018-10-11T06:13:51.058Z,12.60
2018-10-11T06:15:55.426Z,12.60
2018-10-11T06:17:59.745Z,12.60
2018-10-11T06:20:04.034Z,12.60
2018-10-11T06:22:08.475Z,12.60
2018-10-11T06:24:12.697Z,12.70
2018-10-11T06:26:16.978Z,12.70
2018-10-11T06:28:21.371Z,12.70
2018-10-11T06:30:25.968Z,12.70
2018-10-11T06:32:30.341Z,12.60
2018-10-11T06:34:34.750Z,12.70
2018-10-11T06:36:39.382Z,12.60
2018-10-11T06:38:43.686Z,12.60
2018-10-11T06:40:48.073Z,12.50
2018-10-11T06:42:52.597Z,12.50
2018-10-11T06:44:57.827Z,12.60
2018-10-11T06:47:02.230Z,12.60
2018-10-11T06:49:06.876Z,12.70
2018-10-11T06:51:11.169Z,12.70
2018-10-11T06:53:15.398Z,12.70
2018-10-11T06:55:19.676Z,12.70
2018-10-11T06:57:23.924Z,12.70
2018-10-11T06:59:28.204Z,12.80
2018-10-11T07:01:32.499Z,12.80
2018-10-11T07:03:36.726Z,12.70
2018-10-11T07:05:40.890Z,12.80
2018-10-11T07:07:45.084Z,12.70
2018-10-11T07:09:49.343Z,12.70
2018-10-11T07:11:53.600Z,12.70
2018-10-11T07:13:57.807Z,12.80
2018-10-11T07:16:02.038Z,12.90
2018-10-11T07:18:06.391Z,12.90
2018-10-11T07:20:10.676Z,13.00
2018-10-11T07:22:15.013Z,13.10
2018-10-11T07:24:19.252Z,13.10
2018-10-11T07:26:23.456Z,13.00
2018-10-11T07:28:27.708Z,13.10
2018-10-11T07:30:31.852Z,13.20
2018-10-11T07:32:36.111Z,13.20
2018-10-11T07:34:40.385Z,13.20
2018-10-11T07:36:44.612Z,13.20
2018-10-11T07:38:48.875Z,13.30
2018-10-11T07:40:53.152Z,13.30
2018-10-11T07:42:57.367Z,13.40
2018-10-11T07:45:01.560Z,13.40
2018-10-11T07:47:05.808Z,13.40
2018-10-11T07:49:10.129Z,13.50
2018-10-11T07:51:14.369Z,13.50
2018-10-11T07:53:18.628Z,13.50
2018-10-11T07:55:22.827Z,13.60
2018-10-11T07:57:27.009Z,13.70
2018-10-11T07:59:31.287Z,13.70
2018-10-11T08:01:35.603Z,13.70
2018-10-11T08:03:39.810Z,13.70
2018-10-11T08:05:43.993Z,13.80
2018-10-11T08:07:48.247Z,13.80
2018-10-11T08:09:52.551Z,13.90
2018-10-11T08:11:56.913Z,13.90
2018-10-11T08:14:00.999Z,13.90
2018-10-11T08:16:05.331Z,13.90
2018-10-11T08:18:09.532Z,14.00
2018-10-11T08:20:13.868Z,14.10
2018-10-11T08:22:18.053Z,14.10
2018-10-11T08:24:22.345Z,14.10
2018-10-11T08:26:27.011Z,14.10
2018-10-11T08:28:49.523Z,14.20
2018-10-11T08:31:17.476Z,14.20
2018-10-11T08:33:44.269Z,14.30
2018-10-11T08:35:49.332Z,14.40
2018-10-11T08:37:53.604Z,14.40
2018-10-11T08:39:57.704Z,14.50
2018-10-11T08:42:01.969Z,14.40
2018-10-11T08:44:06.239Z,14.50
2018-10-11T08:46:10.400Z,14.50
2018-10-11T08:48:14.608Z,14.50
2018-10-11T08:50:18.892Z,14.60
2018-10-11T08:52:23.114Z,14.60
2018-10-11T08:54:32.314Z,14.70
2018-10-11T08:56:36.747Z,14.70
2018-10-11T08:58:40.991Z,14.80
2018-10-11T09:00:45.408Z,14.80
2018-10-11T09:02:49.507Z,14.80
2018-10-11T09:04:53.663Z,15.00
2018-10-11T09:06:57.864Z,14.90
2018-10-11T09:09:02.678Z,15.00
2018-10-11T09:11:07.320Z,15.00
2018-10-11T09:13:11.571Z,15.10
2018-10-11T09:15:15.907Z,15.20
2018-10-11T09:17:20.121Z,15.10
2018-10-11T09:19:24.317Z,15.20
2018-10-11T09:21:28.821Z,15.30
2018-10-11T09:23:33.030Z,15.30
2018-10-11T09:25:37.555Z,15.40
2018-10-11T09:27:41.695Z,15.40
2018-10-11T09:29:51.270Z,15.40
2018-10-11T09:31:55.749Z,15.40
2018-10-11T09:34:00.173Z,15.50
2018-10-11T09:36:04.584Z,15.80
2018-10-11T09:38:09.685Z,15.80
2018-10-11T09:40:13.935Z,15.80
2018-10-11T09:42:18.196Z,15.80
2018-10-11T09:44:22.458Z,15.90
2018-10-11T09:46:26.792Z,15.80
2018-10-11T09:48:30.952Z,15.80
2018-10-11T09:50:35.180Z,15.80
2018-10-11T09:52:39.367Z,15.90
2018-10-11T09:54:43.663Z,15.90
2018-10-11T09:57:25.558Z,16.00
2018-10-11T09:59:29.718Z,16.00
2018-10-11T10:01:38.985Z,16.00
2018-10-11T10:03:43.293Z,16.00
2018-10-11T10:05:47.476Z,16.00
2018-10-11T10:07:51.840Z,16.10
2018-10-11T10:09:56.173Z,16.10
2018-10-11T10:12:00.390Z,16.40
2018-10-11T10:14:04.647Z,16.50
2018-10-11T10:16:08.855Z,16.30
2018-10-11T10:18:13.123Z,16.40
2018-10-11T10:20:17.354Z,16.40
2018-10-11T10:22:21.554Z,16.50
2018-10-11T10:24:25.726Z,16.50
2018-10-11T10:26:29.966Z,16.50
2018-10-11T10:28:34.167Z,16.70
2018-10-11T10:30:47.991Z,16.70
2018-10-11T10:32:52.196Z,16.80
2018-10-11T10:34:57.237Z,17.10
2018-10-11T10:37:02.195Z,16.90
2018-10-11T10:39:08.080Z,16.90
2018-10-11T10:41:15.553Z,16.90
2018-10-11T10:43:19.787Z,17.00
2018-10-11T10:45:29.111Z,17.00
2018-10-11T10:47:33.362Z,17.10
2018-10-11T10:49:37.604Z,17.00
2018-10-11T10:51:44.846Z,17.10
2018-10-11T10:53:49.075Z,17.10
2018-10-11T10:55:53.282Z,17.10
2018-10-11T10:58:00.270Z,17.30
2018-10-11T11:00:16.122Z,17.20
2018-10-11T11:02:24.263Z,17.30
2018-10-11T11:04:29.433Z,17.30
2018-10-11T11:06:33.651Z,17.30
2018-10-11T11:08:41.163Z,17.30
2018-10-11T11:10:45.338Z,17.40
2018-10-11T11:12:54.443Z,17.30
2018-10-11T11:14:58.648Z,17.40
2018-10-11T11:17:02.914Z,17.50
2018-10-11T11:19:07.287Z,17.50
2018-10-11T11:21:11.615Z,17.50
2018-10-11T11:23:15.801Z,17.60
2018-10-11T11:25:20.040Z,17.60
2018-10-11T11:27:24.201Z,17.60
2018-10-11T11:29:28.342Z,17.60
2018-10-11T11:31:32.916Z,17.60
2018-10-11T11:33:37.201Z,17.70
2018-10-11T11:35:41.556Z,17.80
2018-10-11T11:37:45.714Z,17.80
2018-10-11T11:39:50.100Z,17.80
2018-10-11T11:41:54.230Z,18.00
2018-10-11T11:43:58.519Z,18.20
2018-10-11T11:46:02.785Z,18.10
2018-10-11T11:48:07.383Z,18.20
2018-10-11T11:50:11.621Z,18.30
2018-10-11T11:52:15.875Z,18.30
2018-10-11T11:54:21.509Z,18.50
2018-10-11T11:56:25.729Z,18.40
2018-10-11T11:58:29.914Z,18.50
2018-10-11T12:00:34.115Z,18.50
2018-10-11T12:02:38.386Z,18.60
2018-10-11T12:04:42.598Z,18.60
2018-10-11T12:06:46.769Z,18.70
2018-10-11T12:08:50.979Z,18.80
2018-10-11T12:10:55.214Z,18.80
2018-10-11T12:13:00.740Z,18.90
2018-10-11T12:15:04.975Z,19.00
2018-10-11T12:17:09.239Z,19.20
2018-10-11T12:19:13.507Z,19.90
2018-10-11T12:21:17.711Z,19.80
2018-10-11T12:23:21.968Z,20.00
2018-10-11T12:25:26.399Z,19.90
2018-10-11T12:27:30.601Z,20.10
2018-10-11T12:29:34.846Z,20.10
2018-10-11T12:31:39.119Z,20.90
2018-10-11T12:33:43.377Z,21.10
2018-10-11T12:35:47.565Z,20.70
2018-10-11T12:37:51.895Z,20.60
2018-10-11T12:39:56.065Z,21.10
2018-10-11T12:42:00.212Z,20.90
2018-10-11T12:44:04.450Z,21.10
2018-10-11T12:46:08.781Z,21.10
2018-10-11T12:48:13.005Z,20.90
2018-10-11T12:50:17.268Z,21.90
2018-10-11T12:52:21.467Z,21.80
2018-10-11T12:54:25.655Z,21.50
2018-10-11T12:56:29.944Z,21.80
2018-10-11T12:58:34.018Z,21.90
2018-10-11T13:00:38.208Z,21.90
2018-10-11T13:02:42.548Z,22.10
2018-10-11T13:04:47.220Z,22.40
2018-10-11T13:06:51.504Z,23.20
2018-10-11T13:08:55.759Z,23.70
2018-10-11T13:11:00.005Z,24.00
2018-10-11T13:13:04.270Z,23.60
2018-10-11T13:15:09.005Z,24.10
2018-10-11T13:17:13.216Z,24.50
2018-10-11T13:19:17.440Z,24.00
2018-10-11T13:21:21.714Z,23.60
2018-10-11T13:23:25.998Z,23.40
2018-10-11T13:25:30.274Z,23.80
2018-10-11T13:27:34.482Z,24.80
2018-10-11T13:29:38.714Z,24.80
2018-10-11T13:31:43.015Z,25.00
2018-10-11T13:33:50.158Z,25.00
2018-10-11T13:35:51.415Z,24.40
2018-10-11T13:37:55.709Z,25.10
2018-10-11T13:39:59.961Z,25.60
2018-10-11T13:42:04.130Z,25.60
2018-10-11T13:44:08.435Z,25.80
2018-10-11T13:46:12.711Z,25.80
2018-10-11T13:48:17.111Z,26.30
2018-10-11T13:50:21.314Z,26.90
2018-10-11T13:52:25.490Z,27.00
2018-10-11T13:54:29.665Z,27.30
2018-10-11T13:56:33.889Z,27.20
2018-10-11T13:58:38.181Z,26.50
2018-10-11T14:00:42.600Z,26.10
2018-10-11T14:02:46.952Z,26.30
2018-10-11T14:04:51.128Z,26.60
2018-10-11T14:06:55.303Z,26.20
2018-10-11T14:08:59.479Z,26.30
2018-10-11T14:11:03.700Z,26.60
2018-10-11T14:13:14.268Z,26.50
2018-10-11T14:15:12.247Z,26.70
2018-10-11T14:17:16.421Z,26.20
2018-10-11T14:19:20.669Z,26.10
2018-10-11T14:21:24.823Z,26.10
2018-10-11T14:23:29.137Z,25.80
2018-10-11T14:25:33.323Z,25.80
2018-10-11T14:27:37.665Z,25.50
2018-10-11T14:29:41.839Z,25.60
2018-10-11T14:31:46.085Z,25.60
2018-10-11T14:33:50.575Z,25.70
2018-10-11T14:35:54.826Z,25.50
2018-10-11T14:37:59.215Z,25.10
2018-10-11T14:40:03.504Z,25.00
2018-10-11T14:42:08.091Z,24.90
2018-10-11T14:44:12.274Z,24.60
2018-10-11T14:46:16.686Z,24.40
2018-10-11T14:48:20.900Z,24.20
2018-10-11T14:50:25.180Z,24.60
2018-10-11T14:52:29.526Z,24.50
2018-10-11T14:54:35.209Z,24.30
2018-10-11T14:56:39.436Z,24.10
2018-10-11T14:58:43.742Z,24.30
2018-10-11T15:00:47.947Z,24.40
2018-10-11T15:02:52.279Z,24.60
2018-10-11T15:04:56.490Z,24.10
2018-10-11T15:07:00.706Z,23.60
2018-10-11T15:09:09.228Z,23.20
2018-10-11T15:11:13.684Z,23.00
2018-10-11T15:13:17.876Z,23.10
2018-10-11T15:15:27.940Z,23.30
2018-10-11T15:17:33.453Z,23.50
2018-10-11T15:19:37.630Z,23.70
2018-10-11T15:21:41.860Z,23.90
2018-10-11T15:23:46.133Z,24.10
2018-10-11T15:25:50.366Z,24.30
2018-10-11T15:27:55.619Z,24.40
2018-10-11T15:29:59.965Z,24.50
2018-10-11T15:32:04.155Z,24.20
2018-10-11T15:34:08.795Z,23.90
2018-10-11T15:36:12.992Z,23.40
2018-10-11T15:38:24.446Z,23.10
2018-10-11T15:40:28.630Z,22.70
2018-10-11T15:42:32.851Z,22.70
2018-10-11T15:44:37.107Z,22.60
2018-10-11T15:46:41.725Z,22.50
2018-10-11T15:48:45.982Z,22.30
2018-10-11T15:50:50.266Z,22.10
2018-10-11T15:52:54.419Z,22.00
2018-10-11T15:55:06.254Z,21.90
2018-10-11T15:57:10.821Z,21.80
2018-10-11T15:59:14.991Z,21.60
2018-10-11T16:01:19.223Z,21.40
2018-10-11T16:03:23.497Z,21.40
2018-10-11T16:05:27.776Z,21.30
2018-10-11T16:07:31.992Z,21.10
2018-10-11T16:09:36.206Z,21.00
2018-10-11T16:11:40.436Z,21.00
2018-10-11T16:13:44.676Z,20.90
2018-10-11T16:15:48.868Z,20.80
2018-10-11T16:17:53.068Z,20.80
2018-10-11T16:20:00.130Z,20.80
2018-10-11T16:22:04.363Z,20.70
2018-10-11T16:24:08.503Z,20.70
2018-10-11T16:26:12.747Z,20.60
2018-10-11T16:28:16.998Z,20.60
2018-10-11T16:30:21.191Z,20.60
2018-10-11T16:32:25.344Z,20.50
2018-10-11T16:34:29.584Z,20.40
2018-10-11T16:36:33.835Z,20.40
2018-10-11T16:38:38.059Z,20.30
2018-10-11T16:40:42.264Z,20.20
2018-10-11T16:42:46.469Z,20.10
2018-10-11T16:44:50.778Z,20.10
2018-10-11T16:46:54.954Z,20.00
2018-10-11T16:48:59.182Z,20.10
2018-10-11T16:51:03.365Z,20.00
2018-10-11T16:53:12.695Z,19.90
2018-10-11T16:55:17.020Z,20.00
2018-10-11T16:57:21.306Z,19.90
2018-10-11T16:59:25.514Z,19.90
2018-10-11T17:01:29.925Z,19.80
2018-10-11T17:03:34.138Z,19.70
2018-10-11T17:05:38.369Z,19.80
2018-10-11T17:07:42.650Z,19.70
2018-10-11T17:09:46.910Z,19.60
2018-10-11T17:11:51.151Z,19.50
2018-10-11T17:13:55.334Z,19.50
2018-10-11T17:15:59.518Z,19.50
2018-10-11T17:18:03.723Z,19.50
2018-10-11T17:20:08.007Z,19.50
2018-10-11T17:22:12.367Z,19.50
2018-10-11T17:24:16.561Z,19.40
2018-10-11T17:26:20.803Z,19.40
2018-10-11T17:28:25.131Z,19.30
2018-10-11T17:30:29.390Z,19.30
2018-10-11T17:32:33.604Z,19.30
2018-10-11T17:34:37.910Z,19.30
2018-10-11T17:36:42.114Z,19.20
2018-10-11T17:38:46.380Z,19.10
2018-10-11T17:40:50.629Z,19.10
2018-10-11T17:42:54.864Z,19.20
2018-10-11T17:44:59.187Z,19.20
2018-10-11T17:47:03.394Z,19.20
2018-10-11T17:49:07.622Z,19.10
2018-10-11T17:51:11.825Z,19.10
2018-10-11T17:53:16.028Z,19.10
2018-10-11T17:55:20.340Z,19.00
2018-10-11T17:57:24.913Z,18.90
2018-10-11T17:59:29.104Z,18.90
2018-10-11T18:01:33.340Z,18.90
2018-10-11T18:03:37.524Z,18.90
2018-10-11T18:05:41.877Z,18.90
2018-10-11T18:07:46.091Z,18.90
2018-10-11T18:09:50.624Z,18.90
2018-10-11T18:11:54.855Z,18.90
2018-10-11T18:13:59.062Z,18.90
2018-10-11T18:16:03.383Z,18.90
2018-10-11T18:18:07.783Z,18.80
2018-10-11T18:20:12.031Z,18.80
2018-10-11T18:22:16.256Z,18.70
2018-10-11T18:24:20.462Z,18.70
2018-10-11T18:26:24.714Z,18.80
2018-10-11T18:28:28.903Z,18.70
2018-10-11T18:30:33.131Z,18.70
2018-10-11T18:32:37.306Z,18.70
2018-10-11T18:34:41.447Z,18.70
2018-10-11T18:36:45.658Z,18.70
2018-10-11T18:38:49.847Z,18.70
2018-10-11T18:40:54.084Z,18.60
2018-10-11T18:42:58.305Z,18.60
2018-10-11T18:45:02.497Z,18.70
2018-10-11T18:47:07.071Z,18.70
2018-10-11T18:49:11.591Z,18.70
2018-10-11T18:51:15.815Z,18.70
2018-10-11T18:53:20.074Z,18.70
2018-10-11T18:55:30.279Z,18.70
2018-10-11T18:57:34.556Z,18.70
2018-10-11T18:59:46.979Z,18.70
2018-10-11T19:01:55.074Z,18.70
2018-10-11T19:03:59.334Z,18.60
2018-10-11T19:06:03.606Z,18.60
2018-10-11T19:08:11.255Z,18.60
2018-10-11T19:10:15.438Z,18.60
2018-10-11T19:12:19.713Z,18.60
2018-10-11T19:14:23.910Z,18.60
2018-10-11T19:16:28.229Z,18.60
2018-10-11T19:18:32.484Z,18.60
2018-10-11T19:20:48.522Z,18.60
2018-10-11T19:22:53.372Z,18.60
2018-10-11T19:24:57.604Z,18.60
2018-10-11T19:27:07.768Z,18.60
2018-10-11T19:29:12.447Z,18.50
2018-10-11T19:31:16.631Z,18.50
2018-10-11T19:33:27.475Z,18.50
2018-10-11T19:35:31.708Z,18.50
2018-10-11T19:37:35.930Z,18.40
2018-10-11T19:39:40.336Z,18.40
2018-10-11T19:41:44.549Z,18.50
2018-10-11T19:43:50.560Z,18.40
2018-10-11T19:45:54.771Z,18.40
2018-10-11T19:47:59.044Z,18.40
2018-10-11T19:50:03.324Z,18.40
2018-10-11T19:52:07.557Z,18.30
2018-10-11T19:54:11.787Z,18.30
2018-10-11T19:56:20.143Z,18.30
2018-10-11T19:58:24.459Z,18.30
2018-10-11T20:00:28.791Z,18.30
2018-10-11T20:02:36.491Z,18.20
2018-10-11T20:04:40.609Z,18.20
2018-10-11T20:06:44.891Z,18.20
2018-10-11T20:09:01.303Z,18.20
2018-10-11T20:11:05.543Z,18.20
2018-10-11T20:13:09.783Z,18.10
2018-10-11T20:15:18.751Z,18.10
2018-10-11T20:17:23.009Z,18.10
2018-10-11T20:19:27.183Z,18.10
2018-10-11T20:21:31.448Z,18.10
2018-10-11T20:23:35.654Z,18.10
2018-10-11T20:25:39.879Z,18.10
2018-10-11T20:27:44.394Z,18.10
2018-10-11T20:29:48.678Z,18.00
2018-10-11T20:31:55.458Z,18.00
2018-10-11T20:33:59.666Z,18.00
2018-10-11T20:36:08.286Z,18.00
2018-10-11T20:38:13.408Z,18.00
2018-10-11T20:40:17.627Z,18.00
2018-10-11T20:42:23.233Z,18.00
2018-10-11T20:44:27.495Z,18.00
2018-10-11T20:46:31.775Z,17.90
2018-10-11T20:48:35.954Z,17.90
2018-10-11T20:50:40.190Z,17.90
2018-10-11T20:52:44.381Z,17.90
2018-10-11T20:54:50.469Z,17.90
2018-10-11T20:56:54.739Z,17.80
2018-10-11T20:58:58.977Z,17.80
2018-10-11T21:01:05.810Z,17.80
2018-10-11T21:03:09.953Z,17.90
2018-10-11T21:05:14.115Z,17.80
2018-10-11T21:07:18.372Z,17.80
2018-10-11T21:09:22.546Z,17.80
2018-10-11T21:11:26.726Z,17.80
2018-10-11T21:13:35.669Z,17.80
2018-10-11T21:15:39.835Z,17.80
2018-10-11T21:17:44.057Z,17.70
2018-10-11T21:19:48.378Z,17.70
2018-10-11T21:21:56.549Z,17.70
2018-10-11T21:24:02.478Z,17.70
2018-10-11T21:26:06.666Z,17.70
2018-10-11T21:28:17.092Z,17.70
2018-10-11T21:30:21.209Z,17.60
2018-10-11T21:32:25.423Z,17.60
2018-10-11T21:34:34.430Z,17.60
2018-10-11T21:36:38.642Z,17.60
2018-10-11T21:38:42.900Z,17.60
2018-10-11T21:40:47.102Z,17.60
2018-10-11T21:42:51.310Z,17.60
2018-10-11T21:44:55.535Z,17.60
2018-10-11T21:46:59.763Z,17.60
2018-10-11T21:49:04.054Z,17.60
2018-10-11T21:51:08.333Z,17.60
2018-10-11T21:53:12.526Z,17.50
2018-10-11T21:55:16.782Z,17.50
2018-10-11T21:57:21.060Z,17.50
2018-10-11T21:59:25.435Z,17.60
2018-10-11T22:01:29.927Z,17.50
2018-10-11T22:03:34.143Z,17.50
2018-10-11T22:05:38.487Z,17.50
2018-10-11T22:07:42.703Z,17.50
2018-10-11T22:09:46.868Z,17.40
2018-10-11T22:11:51.225Z,17.40
2018-10-11T22:13:55.467Z,17.40
2018-10-11T22:15:59.821Z,17.40
2018-10-11T22:18:04.032Z,17.30
2018-10-11T22:20:08.274Z,17.30
2018-10-11T22:22:12.586Z,17.30
2018-10-11T22:24:16.830Z,17.20
2018-10-11T22:26:21.067Z,17.20
2018-10-11T22:28:25.488Z,17.10
2018-10-11T22:30:29.737Z,17.10
2018-10-11T22:32:34.021Z,17.10
2018-10-11T22:34:38.222Z,17.10
2018-10-11T22:36:42.391Z,17.10
2018-10-11T22:38:46.672Z,17.00
2018-10-11T22:40:50.963Z,17.00
2018-10-11T22:42:55.482Z,17.00
2018-10-11T22:44:59.689Z,17.00
2018-10-11T22:47:03.933Z,17.00
2018-10-11T22:49:08.398Z,16.90
2018-10-11T22:51:12.809Z,16.90
2018-10-11T22:53:17.236Z,16.90
2018-10-11T22:55:21.411Z,16.90
2018-10-11T22:57:25.706Z,16.80
2018-10-11T22:59:29.946Z,16.80
2018-10-11T23:01:34.153Z,16.80
2018-10-11T23:03:38.399Z,16.80
2018-10-11T23:05:42.639Z,16.80
2018-10-11T23:07:46.877Z,16.70
2018-10-11T23:09:51.058Z,16.70
2018-10-11T23:11:55.383Z,16.70
2018-10-11T23:13:59.649Z,16.70
2018-10-11T23:16:03.819Z,16.60
2018-10-11T23:18:08.076Z,16.60
2018-10-11T23:20:12.725Z,16.60
2018-10-11T23:22:16.930Z,16.60
2018-10-11T23:24:21.117Z,16.50
2018-10-11T23:26:25.439Z,16.50
2018-10-11T23:28:29.654Z,16.60
2018-10-11T23:30:33.869Z,16.50
2018-10-11T23:32:38.370Z,16.50
2018-10-11T23:34:42.562Z,16.50
2018-10-11T23:36:46.740Z,16.50
2018-10-11T23:38:50.967Z,16.50
2018-10-11T23:40:55.178Z,16.40
2018-10-11T23:42:59.456Z,16.40
2018-10-11T23:45:03.685Z,16.40
2018-10-11T23:47:07.864Z,16.30
2018-10-11T23:49:12.086Z,16.30
2018-10-11T23:51:16.263Z,16.20
2018-10-11T23:53:20.477Z,16.20
2018-10-11T23:55:24.667Z,16.20
2018-10-11T23:57:28.894Z,16.20
2018-10-11T23:59:33.117Z,16.20
